Abbott Park, Illinois
Current Conditions -  °F | °C
As of 2:55 AM on Saturday 25 Oct 2014 (Local Time) from KUGN Reporting Station
Broken Clouds Broken Clouds  
Wind Chill: 13°   Ceiling: 1000
Heat Index: 13°   Visibility: 9mi
Dew Point: 11°   Wind: 3mph
Humidity: 84%   Direction: NA
Pressure: 29.87"   Gusts: NA
Location:  42.3271°N, 87.865°W
Report Text: KUGN 250755Z AUTO VRB03KT 9SM BKN010 13/11 A2987 RMK AO2 SLP114 T01330106
Loading
Personal Weather Stations






























Interactive Weather Map
Tropical Storm Tracking
New forecast layout! Learn more

10-Day Weather Forecast

Advertisements
Track Severe Weather on mobile